Uniontown, Washington
Current Conditions -  °F | °C
As of 1:56 PM on Monday 22 Dec 2014 (Local Time) from KLWS Reporting Station
Clear Clear  
Wind Chill: 43°   Ceiling: Unl
Heat Index: 49°   Visibility: 10mi
Dew Point: 31°   Wind: 15mph
Humidity: 50%   Direction: 280°W
Pressure: 30.24"   Gusts: 21mph
Location:  46.54°N, 117.09°W
Report Text: KLWS 222156Z AUTO 28013G18KT 10SM CLR 09/M01 A3024 RMK AO2 RAE46 SLP246 P0000 T00941006
Loading
Personal Weather Stations






























Interactive Weather Map New forecast layout! Learn more

10-Day Weather Forecast

Advertisements
Track Severe Weather on mobile